Aranda — OIRY — position and weather

sailwx.info

Track history (hours):
 
Tides and Currents Weather Stations Pressure Air Temp Water Temp Dewpoint Dewpoint Depression Visibility Wind Speed Wind Dir Waves Ship Positions

Oceanographic research ship Aranda (Finland)

Detailed information on ship capabilities available from University of Delaware's Ocean Information Center and ARCUS's ALIAS (Arctic Logistics Information and Support) project.

Last reported at 2017-Feb-16 22:11 UTC. Time now 2017-Feb-23 02:30 UTC.
Position N 59°59' E 021°42'.

Length 60 m; draft 4.6 m.

Type: Other ship. MMSI: 230145000.

Date/timePositionNaut miles runAvg speedWind from/ knotsBaromVisibWave heightAir tempDewpointWater temp
2017-Feb-16 22:11N 59°59' E 021°42'812.5
2017-Feb-16 21:32N 59°53' E 021°31'1111.3
2017-Feb-16 20:33N 59°43' E 021°20'300 7.7
2017-Feb-15 05:26N 55°49' E 015°26'15 7.8
2017-Feb-15 03:33N 55°42' E 015°04'8 8.1
2017-Feb-15 02:31N 55°37' E 014°52'8 8.2
2017-Feb-15 01:33N 55°30' E 014°46'1212.2
2017-Feb-15 00:33N 55°21' E 014°32'3 3.4
2017-Feb-14 23:33N 55°18' E 014°28'1211.7
2017-Feb-14 22:33N 55°11' E 014°12'1312.6
2017-Feb-14 21:32N 55°11' E 013°50'1212.6
2017-Feb-14 20:33N 55°12' E 013°28'1312.6
2017-Feb-14 19:33N 55°13' E 013°06'1312.6
2017-Feb-14 18:33N 55°16' E 012°45'6 5.8
2017-Feb-14 17:33N 55°16' E 012°34'1111.4
2017-Feb-14 16:33N 55°27' E 012°40'1010.5
2017-Feb-14 15:33N 55°38' E 012°42'1211.7
2017-Feb-14 14:33N 55°49' E 012°42'1212.4
2017-Feb-14 13:33N 56°02' E 012°38'1211.9
2017-Feb-14 12:33N 56°11' E 012°25'1312.5
2017-Feb-14 11:33N 56°23' E 012°17'1613.0
2017-Feb-14 10:18N 56°38' E 012°08'2 2.8
2017-Feb-14 09:33N 56°40' E 012°07'4 4.2
2017-Feb-14 08:30N 56°44' E 012°08'1212.7
2017-Feb-14 07:33N 56°56' E 012°13'2 1.2
2017-Feb-14 06:11N 56°58' E 012°11'912.9
2017-Feb-14 05:27N 57°06' E 012°01'1213.0
2017-Feb-14 04:33N 57°15' E 011°49'1312.6
2017-Feb-14 03:33N 57°26' E 011°37'1312.7
2017-Feb-14 02:33N 57°36' E 011°24'1313.0
2017-Feb-14 01:33N 57°49' E 011°19'3 2.9
2017-Feb-14 00:33N 57°52' E 011°18'1010.3
2017-Feb-13 23:33N 58°02' E 011°17'8 7.6
2017-Feb-13 22:33N 58°10' E 011°21'7 6.3
2017-Feb-13 21:31N 58°16' E 011°26'0 0.0
2017-Feb-13 20:27N 58°16' E 011°26'2 0.8
2017-Feb-13 18:27N 58°16' E 011°23'1112.3
2017-Feb-13 17:33N 58°20' E 011°03'2 2.3
2017-Feb-13 16:33N 58°20' E 010°59'5 4.8
2017-Feb-13 15:33N 58°18' E 010°51'2 1.9
2017-Feb-13 14:33N 58°17' E 010°47'5 4.7
2017-Feb-13 13:31N 58°16' E 010°38'4 4.2
2017-Feb-13 12:32N 58°17' E 010°30'0 0.0
2017-Feb-13 11:31N 58°17' E 010°30'2612.0
2017-Feb-13 09:20N 57°55' E 010°57'1012.8
2017-Feb-13 08:33N 57°46' E 011°07'1312.6
2017-Feb-13 07:33N 57°36' E 011°19'1312.6
2017-Feb-13 06:33N 57°25' E 011°30'1312.7
2017-Feb-13 05:33N 57°13' E 011°39'75 9.4
2017-Feb-12 21:33N 56°05' E 012°37'1313.1
2017-Feb-12 20:33N 55°52' E 012°45'2 1.7
2017-Feb-12 19:33N 55°51' E 012°44'1212.4
2017-Feb-12 18:33N 55°38' E 012°42'1111.1
2017-Feb-12 17:33N 55°27' E 012°42'1210.7
2017-Feb-12 16:27N 55°16' E 012°50'40 9.4
2017-Feb-12 12:11N 55°00' E 013°54'711.5
2017-Feb-12 11:33N 54°58' E 014°06'0 0.0
2017-Feb-12 10:33N 54°58' E 014°06'9 9.1
2017-Feb-12 09:33N 55°05' E 014°17'1212.5
2017-Feb-12 08:33N 55°15' E 014°30'7 6.7
2017-Feb-12 07:32N 55°19' E 014°40'1212.3
2017-Feb-12 06:33N 55°21' E 015°01'1110.7
2017-Feb-12 05:31N 55°23' E 015°20'2 1.9
2017-Feb-12 04:30N 55°22' E 015°23'  
2017-Feb-09 15:04N 59°42' E 023°57'  
Track history (hours):
 
Tides and Currents Weather Stations Pressure Air Temp Water Temp Dewpoint Dewpoint Depression Visibility Wind Speed Wind Dir Waves Ship Positions

Oceanographic research ship Aranda (Finland)

Detailed information on ship capabilities available from University of Delaware's Ocean Information Center and ARCUS's ALIAS (Arctic Logistics Information and Support) project.

Last reported at 2017-Feb-16 22:11 UTC. Time now 2017-Feb-23 02:30 UTC.
Position N 59°59' E 021°42'.

Length 60 m; draft 4.6 m.

Type: Other ship. MMSI: 230145000.

Date/timePositionNaut miles runAvg speedWind from/ knotsBaromVisibWave heightAir tempDewpointWater temp
2017-Feb-16 22:11N 59°59' E 021°42'812.5
2017-Feb-16 21:32N 59°53' E 021°31'1111.3
2017-Feb-16 20:33N 59°43' E 021°20'300 7.7
2017-Feb-15 05:26N 55°49' E 015°26'15 7.8
2017-Feb-15 03:33N 55°42' E 015°04'8 8.1
2017-Feb-15 02:31N 55°37' E 014°52'8 8.2
2017-Feb-15 01:33N 55°30' E 014°46'1212.2
2017-Feb-15 00:33N 55°21' E 014°32'3 3.4
2017-Feb-14 23:33N 55°18' E 014°28'1211.7
2017-Feb-14 22:33N 55°11' E 014°12'1312.6
2017-Feb-14 21:32N 55°11' E 013°50'1212.6
2017-Feb-14 20:33N 55°12' E 013°28'1312.6
2017-Feb-14 19:33N 55°13' E 013°06'1312.6
2017-Feb-14 18:33N 55°16' E 012°45'6 5.8
2017-Feb-14 17:33N 55°16' E 012°34'1111.4
2017-Feb-14 16:33N 55°27' E 012°40'1010.5
2017-Feb-14 15:33N 55°38' E 012°42'1211.7
2017-Feb-14 14:33N 55°49' E 012°42'1212.4
2017-Feb-14 13:33N 56°02' E 012°38'1211.9
2017-Feb-14 12:33N 56°11' E 012°25'1312.5
2017-Feb-14 11:33N 56°23' E 012°17'1613.0
2017-Feb-14 10:18N 56°38' E 012°08'2 2.8
2017-Feb-14 09:33N 56°40' E 012°07'4 4.2
2017-Feb-14 08:30N 56°44' E 012°08'1212.7
2017-Feb-14 07:33N 56°56' E 012°13'2 1.2
2017-Feb-14 06:11N 56°58' E 012°11'912.9
2017-Feb-14 05:27N 57°06' E 012°01'1213.0
2017-Feb-14 04:33N 57°15' E 011°49'1312.6
2017-Feb-14 03:33N 57°26' E 011°37'1312.7
2017-Feb-14 02:33N 57°36' E 011°24'1313.0
2017-Feb-14 01:33N 57°49' E 011°19'3 2.9
2017-Feb-14 00:33N 57°52' E 011°18'1010.3
2017-Feb-13 23:33N 58°02' E 011°17'8 7.6
2017-Feb-13 22:33N 58°10' E 011°21'7 6.3
2017-Feb-13 21:31N 58°16' E 011°26'0 0.0
2017-Feb-13 20:27N 58°16' E 011°26'2 0.8
2017-Feb-13 18:27N 58°16' E 011°23'1112.3
2017-Feb-13 17:33N 58°20' E 011°03'2 2.3
2017-Feb-13 16:33N 58°20' E 010°59'5 4.8
2017-Feb-13 15:33N 58°18' E 010°51'2 1.9
2017-Feb-13 14:33N 58°17' E 010°47'5 4.7
2017-Feb-13 13:31N 58°16' E 010°38'4 4.2
2017-Feb-13 12:32N 58°17' E 010°30'0 0.0
2017-Feb-13 11:31N 58°17' E 010°30'2612.0
2017-Feb-13 09:20N 57°55' E 010°57'1012.8
2017-Feb-13 08:33N 57°46' E 011°07'1312.6
2017-Feb-13 07:33N 57°36' E 011°19'1312.6
2017-Feb-13 06:33N 57°25' E 011°30'1312.7
2017-Feb-13 05:33N 57°13' E 011°39'75 9.4
2017-Feb-12 21:33N 56°05' E 012°37'1313.1
2017-Feb-12 20:33N 55°52' E 012°45'2 1.7
2017-Feb-12 19:33N 55°51' E 012°44'1212.4
2017-Feb-12 18:33N 55°38' E 012°42'1111.1
2017-Feb-12 17:33N 55°27' E 012°42'1210.7
2017-Feb-12 16:27N 55°16' E 012°50'40 9.4
2017-Feb-12 12:11N 55°00' E 013°54'711.5
2017-Feb-12 11:33N 54°58' E 014°06'0 0.0
2017-Feb-12 10:33N 54°58' E 014°06'9 9.1
2017-Feb-12 09:33N 55°05' E 014°17'1212.5
2017-Feb-12 08:33N 55°15' E 014°30'7 6.7
2017-Feb-12 07:32N 55°19' E 014°40'1212.3
2017-Feb-12 06:33N 55°21' E 015°01'1110.7
2017-Feb-12 05:31N 55°23' E 015°20'2 1.9
2017-Feb-12 04:30N 55°22' E 015°23'  
2017-Feb-09 15:04N 59°42' E 023°57'  

Dump ship's entire track history